Terminal Aerodrome Forecast
Issued by NWS

Home | Current Version | Previous Version | Text Only | Print | Product List | Glossary On
Versions: 1 2 3 4 5 6 7 8 9 10 11 12 13 14 15 16 17 18
160
FTUS41 KGYX 281221 AAB
TAFHIE
TAF AMD
KHIE 281221Z 2812/2912 00000KT P6SM SCT025 BKN045
     FM281400 27006KT P6SM SCT035 BKN080=

USA.gov is the U.S. government's official web portal to all federal, state and local government web resources and services.